createdAt,value
2019-01-09T00:00:01.629Z,94966.35
2019-01-09T00:02:51.497Z,94966.35
2019-01-09T00:05:41.102Z,94963.20
2019-01-09T00:08:49.851Z,94967.81
2019-01-09T00:11:39.570Z,94967.81
2019-01-09T00:14:29.271Z,94954.19
2019-01-09T00:17:38.012Z,94950.53
2019-01-09T00:20:46.982Z,94939.36
2019-01-09T00:23:56.224Z,94942.36
2019-01-09T00:26:46.025Z,94942.36
2019-01-09T00:29:36.781Z,94938.69
2019-01-09T00:32:26.667Z,94936.09
2019-01-09T00:35:37.431Z,94944.44
2019-01-09T00:38:27.654Z,94944.44
2019-01-09T00:41:17.757Z,94929.98
2019-01-09T00:44:07.811Z,94958.84
2019-01-09T00:46:57.919Z,94943.91
2019-01-09T00:49:47.880Z,94938.16
2019-01-09T00:52:38.788Z,94937.39
2019-01-09T00:55:29.125Z,94937.39
2019-01-09T00:58:19.042Z,94926.47
2019-01-09T01:01:28.113Z,94943.17
2019-01-09T01:04:55.919Z,94932.92
2019-01-09T01:08:13.049Z,94937.42
2019-01-09T01:11:41.104Z,94932.30
2019-01-09T01:15:15.365Z,94932.30
2019-01-09T01:18:43.173Z,94935.11
2019-01-09T01:21:37.301Z,94940.59
2019-01-09T01:25:05.349Z,94933.02
2019-01-09T01:28:21.054Z,94958.18
2019-01-09T01:31:48.872Z,94942.28
2019-01-09T01:35:16.914Z,94945.19
2019-01-09T01:38:44.713Z,94933.84
2019-01-09T01:42:12.536Z,94927.24
2019-01-09T01:45:40.364Z,94927.24
2019-01-09T01:49:08.444Z,94927.80
2019-01-09T01:52:25.944Z,94939.95
2019-01-09T01:55:53.748Z,94930.17
2019-01-09T01:59:08.698Z,94929.41
2019-01-09T02:02:36.833Z,94917.94
2019-01-09T02:06:04.632Z,94910.81
2019-01-09T02:09:33.133Z,94937.09
2019-01-09T02:13:00.926Z,94937.09
2019-01-09T02:16:28.715Z,94932.12
2019-01-09T02:19:52.076Z,94932.12
2019-01-09T02:23:09.637Z,94917.95
2019-01-09T02:26:37.680Z,94917.95
2019-01-09T02:30:05.752Z,94912.76
2019-01-09T02:32:56.602Z,94909.50
2019-01-09T02:35:46.539Z,94909.50
2019-01-09T02:38:38.045Z,94915.31
2019-01-09T02:42:02.304Z,94909.60
2019-01-09T02:44:53.254Z,94905.03
2019-01-09T02:47:42.034Z,94905.03
2019-01-09T02:50:50.772Z,94911.29
2019-01-09T02:54:00.359Z,94899.28
2019-01-09T02:57:09.088Z,94906.64
2019-01-09T02:59:59.196Z,94898.08
2019-01-09T03:02:48.929Z,94898.08
2019-01-09T03:05:38.609Z,94900.78
2019-01-09T03:08:28.771Z,94901.70
2019-01-09T03:11:18.689Z,94883.91
2019-01-09T03:14:08.966Z,94883.91
2019-01-09T03:17:17.712Z,94877.11
2019-01-09T03:20:07.410Z,94855.63
2019-01-09T03:22:57.157Z,94855.63
2019-01-09T03:25:46.916Z,94852.62
2019-01-09T03:28:37.180Z,94846.12
2019-01-09T03:31:26.982Z,94838.65
2019-01-09T03:34:17.435Z,94829.39
2019-01-09T03:37:07.250Z,94829.36
2019-01-09T03:39:56.760Z,94826.94
2019-01-09T03:42:47.394Z,94815.83
2019-01-09T03:45:37.378Z,94804.74
2019-01-09T03:48:38.788Z,94799.77
2019-01-09T03:51:29.130Z,94799.77
2019-01-09T03:54:18.813Z,94792.16
2019-01-09T03:57:09.194Z,94795.81
2019-01-09T03:59:59.640Z,94799.62
2019-01-09T04:02:49.354Z,94821.00
2019-01-09T04:05:39.211Z,94838.98
2019-01-09T04:08:28.980Z,94863.15
2019-01-09T04:11:19.177Z,94849.83
2019-01-09T04:14:27.833Z,94855.49
2019-01-09T04:17:17.532Z,94855.49
2019-01-09T04:20:07.213Z,94848.14
2019-01-09T04:22:57.176Z,94847.01
2019-01-09T04:26:06.078Z,94842.17
2019-01-09T04:28:55.895Z,94842.17
2019-01-09T04:31:45.570Z,94843.93
2019-01-09T04:34:54.319Z,94837.36
2019-01-09T04:37:44.253Z,94837.36
2019-01-09T04:43:42.901Z,94834.69
2019-01-09T04:46:32.540Z,94823.16
2019-01-09T04:49:41.410Z,94822.02
2019-01-09T04:52:31.802Z,94822.02
2019-01-09T04:55:22.263Z,94805.57
2019-01-09T04:58:31.045Z,94801.01
2019-01-09T05:01:20.789Z,94801.01
2019-01-09T05:04:10.621Z,94800.84
2019-01-09T05:07:00.945Z,94809.18
2019-01-09T05:09:53.730Z,94809.18
2019-01-09T05:12:44.196Z,94796.61
2019-01-09T05:15:34.233Z,94796.61
2019-01-09T05:18:24.235Z,94800.22
2019-01-09T05:21:32.911Z,94805.23
2019-01-09T05:24:22.967Z,94805.93
2019-01-09T05:27:12.679Z,94805.93
2019-01-09T05:30:02.950Z,94808.98
2019-01-09T05:32:53.240Z,94803.81
2019-01-09T05:36:02.591Z,94809.75
2019-01-09T05:38:52.068Z,94813.11
2019-01-09T05:41:41.771Z,94812.69
2019-01-09T05:44:31.505Z,94812.69
2019-01-09T05:47:40.399Z,94816.23
2019-01-09T05:50:30.342Z,94816.71
2019-01-09T05:53:20.262Z,94816.71
2019-01-09T05:56:09.999Z,94819.10
2019-01-09T05:58:59.956Z,94816.06
2019-01-09T06:02:08.700Z,94814.17
2019-01-09T06:05:17.354Z,94812.08
2019-01-09T06:08:06.946Z,94812.08
2019-01-09T06:10:56.922Z,94797.86
2019-01-09T06:14:05.659Z,94799.98
2019-01-09T06:16:55.178Z,94799.98
2019-01-09T06:20:04.262Z,94814.17
2019-01-09T06:22:54.000Z,94814.17
2019-01-09T06:25:44.046Z,94794.72
2019-01-09T06:28:34.620Z,94801.05
2019-01-09T06:31:24.383Z,94787.05
2019-01-09T06:34:33.218Z,94790.63
2019-01-09T06:37:42.498Z,94798.78
2019-01-09T06:40:44.087Z,94819.44
2019-01-09T06:43:33.765Z,94820.47
2019-01-09T06:46:24.230Z,94812.38
2019-01-09T06:49:14.326Z,94812.38
2019-01-09T06:52:04.601Z,94806.53
2019-01-09T06:54:54.637Z,94806.53
2019-01-09T06:57:44.396Z,94804.12
2019-01-09T07:00:33.920Z,94805.54
2019-01-09T07:03:23.906Z,94800.28
2019-01-09T07:06:13.506Z,94793.80
2019-01-09T07:12:14.417Z,94804.84
2019-01-09T07:15:11.246Z,94799.73
2019-01-09T07:17:56.027Z,94802.84
2019-01-09T07:21:04.702Z,94810.33
2019-01-09T07:23:54.157Z,94810.33
2019-01-09T07:26:43.877Z,94804.53
2019-01-09T07:29:34.352Z,94811.16
2019-01-09T07:32:23.794Z,94806.30
2019-01-09T07:35:32.699Z,94804.45
2019-01-09T07:38:41.349Z,94811.72
2019-01-09T07:41:43.035Z,94821.95
2019-01-09T07:44:44.538Z,94817.30
2019-01-09T07:47:35.002Z,94817.30
2019-01-09T07:50:25.437Z,94807.55
2019-01-09T07:53:35.054Z,94806.05
2019-01-09T07:56:43.968Z,94816.39
2019-01-09T07:59:33.734Z,94816.39
2019-01-09T08:02:23.534Z,94820.75
2019-01-09T08:05:13.478Z,94813.26
2019-01-09T08:08:03.405Z,94835.59
2019-01-09T08:10:53.461Z,94832.80
2019-01-09T08:14:02.367Z,94843.72
2019-01-09T08:16:52.208Z,94843.72
2019-01-09T08:20:01.078Z,94830.69
2019-01-09T08:23:10.004Z,94832.96
2019-01-09T08:25:59.914Z,94832.96
2019-01-09T08:28:49.612Z,94844.58
2019-01-09T08:31:39.591Z,94842.03
2019-01-09T08:34:29.045Z,94843.45
2019-01-09T08:37:19.566Z,94839.72
2019-01-09T08:40:10.098Z,94847.86
2019-01-09T08:42:59.882Z,94842.36
2019-01-09T08:46:08.603Z,94863.92
2019-01-09T08:49:17.337Z,94870.78
2019-01-09T08:52:25.999Z,94872.30
2019-01-09T08:55:15.933Z,94872.30
2019-01-09T08:58:05.934Z,94868.33
2019-01-09T09:00:55.628Z,94878.64
2019-01-09T09:04:05.119Z,94889.35
2019-01-09T09:07:13.860Z,94891.77
2019-01-09T09:10:04.856Z,94891.77
2019-01-09T09:12:54.774Z,94904.61
2019-01-09T09:15:44.230Z,94907.16
2019-01-09T09:18:34.165Z,94905.22
2019-01-09T09:21:43.309Z,94904.19
2019-01-09T09:24:33.475Z,94909.43
2019-01-09T09:27:42.482Z,94910.02
2019-01-09T09:30:51.210Z,94916.08
2019-01-09T09:34:00.355Z,94918.88
2019-01-09T09:36:50.202Z,94918.88
2019-01-09T09:39:40.782Z,94916.55
2019-01-09T09:42:49.719Z,94914.13
2019-01-09T09:45:58.859Z,94921.91
2019-01-09T09:48:48.638Z,94921.91
2019-01-09T09:51:57.540Z,94913.52
2019-01-09T09:54:46.984Z,94913.52
2019-01-09T09:57:37.937Z,94920.86
2019-01-09T10:00:27.962Z,94908.91
2019-01-09T10:03:17.412Z,94914.51
2019-01-09T10:06:26.384Z,94914.59
2019-01-09T10:09:16.051Z,94914.59
2019-01-09T10:12:05.576Z,94921.38
2019-01-09T10:14:55.351Z,94915.13
2019-01-09T10:17:44.942Z,94905.74
2019-01-09T10:20:34.458Z,94921.53
2019-01-09T10:23:24.187Z,94921.53
2019-01-09T10:26:13.785Z,94914.75
2019-01-09T10:29:03.878Z,94910.20
2019-01-09T10:31:53.968Z,94912.66
2019-01-09T10:34:43.733Z,94913.09
2019-01-09T10:37:33.795Z,94906.03
2019-01-09T10:40:24.536Z,94909.63
2019-01-09T10:43:14.188Z,94915.17
2019-01-09T10:46:04.576Z,94904.61
2019-01-09T10:48:54.342Z,94897.55
2019-01-09T10:51:44.338Z,94908.97
2019-01-09T10:54:53.018Z,94905.70
2019-01-09T10:57:42.925Z,94905.70
2019-01-09T11:03:30.751Z,94898.73
2019-01-09T11:06:20.448Z,94897.97
2019-01-09T11:09:09.958Z,94893.00
2019-01-09T11:11:59.975Z,94895.37
2019-01-09T11:14:50.024Z,94893.95
2019-01-09T11:17:40.417Z,94900.72
2019-01-09T11:20:49.068Z,94892.76
2019-01-09T11:23:39.068Z,94892.76
2019-01-09T11:26:29.220Z,94896.17
2019-01-09T11:29:19.502Z,94889.77
2019-01-09T11:32:09.793Z,94884.03
2019-01-09T11:35:19.133Z,94877.11
2019-01-09T11:38:27.805Z,94882.70
2019-01-09T11:41:17.327Z,94882.70
2019-01-09T11:44:07.249Z,94882.17
2019-01-09T11:46:57.395Z,94882.51
2019-01-09T11:49:47.111Z,94885.12
2019-01-09T11:52:56.002Z,94887.45
2019-01-09T11:55:45.553Z,94887.45
2019-01-09T11:58:54.519Z,94876.56
2019-01-09T12:01:44.197Z,94876.56
2019-01-09T12:04:33.894Z,94878.50
2019-01-09T12:07:42.627Z,94881.72
2019-01-09T12:10:33.099Z,94881.72
2019-01-09T12:13:22.547Z,94878.27
2019-01-09T12:16:12.273Z,94877.14
2019-01-09T12:19:20.911Z,94890.20
2019-01-09T12:22:10.851Z,94869.32
2019-01-09T12:25:19.735Z,94875.33
2019-01-09T12:28:09.968Z,94875.33
2019-01-09T12:31:00.578Z,94885.80
2019-01-09T12:34:09.250Z,94885.05
2019-01-09T12:36:59.029Z,94885.05
2019-01-09T12:39:48.537Z,94893.80
2019-01-09T12:42:38.430Z,94882.25
2019-01-09T12:45:47.158Z,94890.44
2019-01-09T12:48:37.069Z,94890.44
2019-01-09T12:51:27.314Z,94889.06
2019-01-09T12:54:17.015Z,94889.06
2019-01-09T12:57:06.458Z,94898.88
2019-01-09T12:59:56.472Z,94898.88
2019-01-09T13:03:05.381Z,94889.92
2019-01-09T13:06:14.104Z,94900.97
2019-01-09T13:09:05.862Z,94900.97
2019-01-09T13:12:14.513Z,94906.36
2019-01-09T13:18:19.411Z,94903.80
2019-01-09T13:21:09.310Z,94915.21
2019-01-09T13:23:58.824Z,94909.37
2019-01-09T13:26:48.330Z,94924.74
2019-01-09T13:29:56.999Z,94936.98
2019-01-09T13:32:46.587Z,94936.98
2019-01-09T13:35:48.026Z,94944.56
2019-01-09T13:38:37.881Z,94944.56
2019-01-09T13:41:46.612Z,94948.06
2019-01-09T13:44:36.416Z,94948.06
2019-01-09T13:47:25.914Z,94952.42
2019-01-09T13:50:34.576Z,94942.25
2019-01-09T13:53:24.144Z,94942.25
2019-01-09T13:56:14.193Z,94952.56
2019-01-09T13:59:23.000Z,94961.91
2019-01-09T14:02:31.696Z,94947.83
2019-01-09T14:05:23.492Z,94947.83
2019-01-09T14:08:13.415Z,94961.90
2019-01-09T14:11:03.095Z,94966.91
2019-01-09T14:14:12.138Z,94965.88
2019-01-09T14:17:01.829Z,94965.88
2019-01-09T14:19:51.529Z,94966.27
2019-01-09T14:23:00.425Z,94980.02
2019-01-09T14:25:50.124Z,94980.02
2019-01-09T14:28:58.985Z,94985.10
2019-01-09T14:31:48.614Z,94985.10
2019-01-09T14:34:57.509Z,94990.12
2019-01-09T14:38:06.262Z,94997.08
2019-01-09T14:41:14.929Z,94997.08
2019-01-09T14:44:05.443Z,95001.72
2019-01-09T14:46:55.367Z,95006.43
2019-01-09T14:49:44.955Z,95008.92
2019-01-09T14:52:35.588Z,95013.05
2019-01-09T14:55:46.041Z,95013.05
2019-01-09T14:58:35.960Z,95024.29
2019-01-09T15:01:25.739Z,95023.02
2019-01-09T15:04:34.588Z,95024.31
2019-01-09T15:07:24.179Z,95024.31
2019-01-09T15:10:16.674Z,95022.03
2019-01-09T15:13:07.028Z,95026.30
2019-01-09T15:15:56.967Z,95031.14
2019-01-09T15:18:46.548Z,95034.33
2019-01-09T15:21:55.522Z,95030.13
2019-01-09T15:24:45.072Z,95035.05
2019-01-09T15:27:35.096Z,95031.41
2019-01-09T15:30:26.740Z,95040.89
2019-01-09T15:33:16.709Z,95039.03
2019-01-09T15:36:25.402Z,95040.44
2019-01-09T15:39:15.570Z,95040.44
2019-01-09T15:42:05.419Z,95050.27
2019-01-09T15:44:55.192Z,95053.83
2019-01-09T15:47:44.789Z,95052.20
2019-01-09T15:50:53.521Z,95057.31
2019-01-09T15:54:02.185Z,95054.31
2019-01-09T15:56:55.446Z,95054.31
2019-01-09T15:59:48.613Z,95058.72
2019-01-09T16:02:39.373Z,95066.75
2019-01-09T16:05:29.554Z,95057.88
2019-01-09T16:08:19.325Z,95065.67
2019-01-09T16:11:28.171Z,95071.52
2019-01-09T16:14:37.094Z,95064.03
2019-01-09T16:17:49.091Z,95068.41
2019-01-09T16:20:47.572Z,95068.41
2019-01-09T16:23:37.100Z,95076.81
2019-01-09T16:26:26.943Z,95080.30
2019-01-09T16:29:28.806Z,95077.95
2019-01-09T16:32:18.927Z,95077.95
2019-01-09T16:35:08.587Z,95071.78
2019-01-09T16:37:58.877Z,95069.95
2019-01-09T16:40:48.835Z,95085.14
2019-01-09T16:43:38.308Z,95085.14
2019-01-09T16:46:28.185Z,95091.46
2019-01-09T16:49:18.288Z,95091.46
2019-01-09T16:52:08.321Z,95090.25
2019-01-09T16:58:54.481Z,95093.70
2019-01-09T17:01:44.348Z,95093.70
2019-01-09T17:04:34.062Z,95091.33
2019-01-09T17:07:24.011Z,95098.86
2019-01-09T17:10:14.102Z,95101.75
2019-01-09T17:13:02.180Z,95094.69
2019-01-09T17:15:55.455Z,95094.69
2019-01-09T17:18:48.243Z,95097.70
2019-01-09T17:21:38.108Z,95097.05
2019-01-09T17:24:27.575Z,95103.78
2019-01-09T17:27:36.863Z,95105.32
2019-01-09T17:30:38.584Z,95099.13
2019-01-09T17:33:28.123Z,95099.13
2019-01-09T17:36:18.149Z,95108.05
2019-01-09T17:39:08.754Z,95113.84
2019-01-09T17:42:18.444Z,95119.09
2019-01-09T17:45:27.179Z,95117.52
2019-01-09T17:48:16.865Z,95117.52
2019-01-09T17:51:06.641Z,95124.80
2019-01-09T17:54:15.867Z,95121.80
2019-01-09T17:57:05.966Z,95121.80
2019-01-09T17:59:55.662Z,95121.53
2019-01-09T18:03:04.574Z,95117.37
2019-01-09T18:06:13.349Z,95125.71
2019-01-09T18:09:03.379Z,95125.71
2019-01-09T18:14:52.092Z,95124.95
2019-01-09T18:17:42.311Z,95129.59
2019-01-09T18:20:33.235Z,95142.31
2019-01-09T18:23:23.096Z,95153.66
2019-01-09T18:26:12.639Z,95152.75
2019-01-09T18:29:03.246Z,95151.10
2019-01-09T18:32:31.181Z,95158.84
2019-01-09T18:35:51.233Z,95167.02
2019-01-09T18:39:19.288Z,95172.00
2019-01-09T18:42:47.097Z,95172.00
2019-01-09T18:46:15.145Z,95166.24
2019-01-09T18:49:26.378Z,95168.33
2019-01-09T18:52:54.743Z,95173.28
2019-01-09T18:55:45.229Z,95167.86
2019-01-09T18:58:35.241Z,95182.42
2019-01-09T19:01:25.309Z,95181.40
2019-01-09T19:04:15.257Z,95185.50
2019-01-09T19:07:25.892Z,95187.70
2019-01-09T19:10:18.967Z,95184.69
2019-01-09T19:13:09.172Z,95192.86
2019-01-09T19:15:59.065Z,95192.98
2019-01-09T19:18:49.298Z,95200.05
2019-01-09T19:21:58.212Z,95199.11
2019-01-09T19:24:48.374Z,95199.11
2019-01-09T19:27:38.224Z,95210.98
2019-01-09T19:30:50.921Z,95218.52
2019-01-09T19:33:41.658Z,95213.16
2019-01-09T19:36:31.673Z,95226.52
2019-01-09T19:39:21.690Z,95226.77
2019-01-09T19:42:11.636Z,95225.88
2019-01-09T19:45:01.558Z,95227.58
2019-01-09T19:47:52.236Z,95225.16
2019-01-09T19:50:42.557Z,95228.39
2019-01-09T19:53:32.985Z,95226.77
2019-01-09T19:56:42.242Z,95229.67
2019-01-09T19:59:32.037Z,95229.67
2019-01-09T20:02:41.299Z,95244.98
2019-01-09T20:05:30.995Z,95244.98
2019-01-09T20:08:20.824Z,95241.53
2019-01-09T20:11:10.887Z,95243.74
2019-01-09T20:14:00.597Z,95248.04
2019-01-09T20:16:50.236Z,95242.59
2019-01-09T20:19:40.533Z,95247.08
2019-01-09T20:22:30.185Z,95243.65
2019-01-09T20:25:20.418Z,95250.25
2019-01-09T20:28:10.399Z,95252.65
2019-01-09T20:30:59.889Z,95252.52
2019-01-09T20:33:50.412Z,95252.90
2019-01-09T20:36:40.937Z,95264.14
2019-01-09T20:39:31.022Z,95258.81
2019-01-09T20:42:20.541Z,95271.11
2019-01-09T20:45:30.024Z,95271.61
2019-01-09T20:48:20.214Z,95271.61
2019-01-09T20:51:10.789Z,95268.83
2019-01-09T20:54:01.716Z,95268.92
2019-01-09T20:56:51.851Z,95274.75
2019-01-09T20:59:42.661Z,95268.36
2019-01-09T21:02:33.355Z,95275.44
2019-01-09T21:05:44.688Z,95264.73
2019-01-09T21:08:35.406Z,95277.18
2019-01-09T21:11:25.389Z,95269.39
2019-01-09T21:14:15.367Z,95278.92
2019-01-09T21:17:05.192Z,95280.08
2019-01-09T21:19:55.015Z,95278.33
2019-01-09T21:22:44.854Z,95279.83
2019-01-09T21:25:34.627Z,95281.94
2019-01-09T21:28:24.978Z,95278.11
2019-01-09T21:31:15.367Z,95285.05
2019-01-09T21:34:05.918Z,95286.92
2019-01-09T21:37:15.648Z,95288.33
2019-01-09T21:40:09.526Z,95288.33
2019-01-09T21:42:59.986Z,95290.67
2019-01-09T21:45:49.847Z,95290.67
2019-01-09T21:48:39.614Z,95283.68
2019-01-09T21:51:29.867Z,95286.92
2019-01-09T21:54:19.681Z,95292.73
2019-01-09T21:57:09.354Z,95289.47
2019-01-09T22:00:00.417Z,95296.78
2019-01-09T22:02:50.321Z,95300.08
2019-01-09T22:05:41.426Z,95302.50
2019-01-09T22:08:32.725Z,95301.91
2019-01-09T22:11:40.601Z,95307.02
2019-01-09T22:14:30.702Z,95307.02
2019-01-09T22:17:21.779Z,95300.27
2019-01-09T22:20:13.557Z,95306.09
2019-01-09T22:23:25.300Z,95307.70
2019-01-09T22:26:53.729Z,95303.77
2019-01-09T22:29:30.622Z,95309.33
2019-01-09T22:32:22.424Z,95306.54
2019-01-09T22:35:41.380Z,95303.86
2019-01-09T22:38:26.514Z,95307.01
2019-01-09T22:41:16.338Z,95305.26
2019-01-09T22:44:05.938Z,95311.42
2019-01-09T22:46:56.343Z,95309.89
2019-01-09T22:49:46.608Z,95305.13
2019-01-09T22:52:36.412Z,95306.30
2019-01-09T22:55:26.398Z,95314.08
2019-01-09T22:58:16.432Z,95312.45
2019-01-09T23:01:27.203Z,95307.94
2019-01-09T23:04:17.189Z,95321.17
2019-01-09T23:07:08.151Z,95312.00
2019-01-09T23:09:58.147Z,95310.58
2019-01-09T23:12:47.750Z,95315.00
2019-01-09T23:15:37.275Z,95308.88
2019-01-09T23:18:26.900Z,95323.52
2019-01-09T23:21:17.132Z,95317.34
2019-01-09T23:24:07.839Z,95319.65
2019-01-09T23:26:58.096Z,95313.83
2019-01-09T23:29:48.183Z,95313.83
2019-01-09T23:32:37.793Z,95312.87
2019-01-09T23:35:27.749Z,95320.91
2019-01-09T23:38:37.123Z,95313.69
2019-01-09T23:41:27.212Z,95315.35
2019-01-09T23:44:17.123Z,95321.64
2019-01-09T23:47:07.169Z,95320.47
2019-01-09T23:49:57.381Z,95327.43
2019-01-09T23:52:46.972Z,95324.63
2019-01-09T23:55:36.435Z,95333.09
2019-01-09T23:58:26.307Z,95334.70
